sensor_id;sensor_type;location;lat;lon;timestamp;P1;durP1;ratioP1;P2;durP2;ratioP2
27533;SDS011;14973;51.460;7.008;2022-12-10T00:01:47;130.75;;;47.28;;
27533;SDS011;14973;51.460;7.008;2022-12-10T00:04:13;129.10;;;47.83;;
27533;SDS011;14973;51.460;7.008;2022-12-10T00:06:39;114.20;;;43.33;;
27533;SDS011;14973;51.460;7.008;2022-12-10T00:09:07;114.82;;;44.95;;
27533;SDS011;14973;51.460;7.008;2022-12-10T00:14:07;115.45;;;43.17;;
27533;SDS011;14973;51.460;7.008;2022-12-10T00:16:34;112.45;;;44.03;;
27533;SDS011;14973;51.460;7.008;2022-12-10T00:19:00;108.03;;;44.20;;
27533;SDS011;14973;51.460;7.008;2022-12-10T00:21:27;121.18;;;44.97;;
27533;SDS011;14973;51.460;7.008;2022-12-10T00:23:55;114.32;;;43.83;;
27533;SDS011;14973;51.460;7.008;2022-12-10T00:28:48;109.40;;;42.17;;
27533;SDS011;14973;51.460;7.008;2022-12-10T00:31:19;101.82;;;39.17;;
27533;SDS011;14973;51.460;7.008;2022-12-10T00:33:47;109.47;;;42.00;;
27533;SDS011;14973;51.460;7.008;2022-12-10T00:36:14;108.13;;;42.58;;
27533;SDS011;14973;51.460;7.008;2022-12-10T00:38:45;98.70;;;37.95;;
27533;SDS011;14973;51.460;7.008;2022-12-10T00:41:12;97.85;;;37.58;;
27533;SDS011;14973;51.460;7.008;2022-12-10T00:43:37;91.30;;;36.63;;
27533;SDS011;14973;51.460;7.008;2022-12-10T00:46:03;101.43;;;39.25;;
27533;SDS011;14973;51.460;7.008;2022-12-10T00:48:29;104.97;;;40.22;;
27533;SDS011;14973;51.460;7.008;2022-12-10T00:51:06;92.75;;;36.90;;
27533;SDS011;14973;51.460;7.008;2022-12-10T00:53:32;85.20;;;30.77;;
27533;SDS011;14973;51.460;7.008;2022-12-10T00:55:59;68.53;;;28.77;;
27533;SDS011;14973;51.460;7.008;2022-12-10T00:58:28;69.03;;;27.75;;
27533;SDS011;14973;51.460;7.008;2022-12-10T01:03:36;104.65;;;39.53;;
27533;SDS011;14973;51.460;7.008;2022-12-10T01:08:38;110.78;;;41.72;;
27533;SDS011;14973;51.460;7.008;2022-12-10T01:11:04;101.88;;;40.58;;
27533;SDS011;14973;51.460;7.008;2022-12-10T01:13:30;101.40;;;39.63;;
27533;SDS011;14973;51.460;7.008;2022-12-10T01:15:56;111.72;;;42.70;;
27533;SDS011;14973;51.460;7.008;2022-12-10T01:18:22;120.15;;;42.45;;
27533;SDS011;14973;51.460;7.008;2022-12-10T01:20:47;123.85;;;44.67;;
27533;SDS011;14973;51.460;7.008;2022-12-10T01:23:13;117.28;;;43.70;;
27533;SDS011;14973;51.460;7.008;2022-12-10T01:25:38;121.53;;;44.45;;
27533;SDS011;14973;51.460;7.008;2022-12-10T01:28:04;119.10;;;44.38;;
27533;SDS011;14973;51.460;7.008;2022-12-10T01:30:29;135.80;;;47.13;;
27533;SDS011;14973;51.460;7.008;2022-12-10T01:32:55;130.85;;;44.40;;
27533;SDS011;14973;51.460;7.008;2022-12-10T01:35:20;133.57;;;48.25;;
27533;SDS011;14973;51.460;7.008;2022-12-10T01:37:46;121.30;;;44.33;;
27533;SDS011;14973;51.460;7.008;2022-12-10T01:40:11;134.90;;;46.85;;
27533;SDS011;14973;51.460;7.008;2022-12-10T01:42:37;143.75;;;48.70;;
27533;SDS011;14973;51.460;7.008;2022-12-10T01:45:05;130.50;;;46.95;;
27533;SDS011;14973;51.460;7.008;2022-12-10T01:47:33;141.90;;;50.13;;
27533;SDS011;14973;51.460;7.008;2022-12-10T01:49:59;156.90;;;49.90;;
27533;SDS011;14973;51.460;7.008;2022-12-10T01:52:25;145.13;;;48.58;;
27533;SDS011;14973;51.460;7.008;2022-12-10T01:54:51;145.07;;;49.47;;
27533;SDS011;14973;51.460;7.008;2022-12-10T01:57:18;145.68;;;47.42;;
27533;SDS011;14973;51.460;7.008;2022-12-10T01:59:53;141.18;;;48.65;;
27533;SDS011;14973;51.460;7.008;2022-12-10T02:07:56;129.10;;;45.88;;
27533;SDS011;14973;51.460;7.008;2022-12-10T02:16:03;141.80;;;48.92;;
27533;SDS011;14973;51.460;7.008;2022-12-10T02:18:31;134.60;;;48.70;;
27533;SDS011;14973;51.460;7.008;2022-12-10T02:21:07;154.52;;;52.60;;
27533;SDS011;14973;51.460;7.008;2022-12-10T02:23:38;147.15;;;49.08;;
27533;SDS011;14973;51.460;7.008;2022-12-10T02:31:39;161.27;;;54.70;;
27533;SDS011;14973;51.460;7.008;2022-12-10T02:34:09;160.40;;;53.20;;
27533;SDS011;14973;51.460;7.008;2022-12-10T02:36:37;177.40;;;55.35;;
27533;SDS011;14973;51.460;7.008;2022-12-10T02:39:09;170.00;;;55.03;;
27533;SDS011;14973;51.460;7.008;2022-12-10T02:41:37;162.45;;;52.90;;
27533;SDS011;14973;51.460;7.008;2022-12-10T02:44:07;160.40;;;53.95;;
27533;SDS011;14973;51.460;7.008;2022-12-10T02:46:36;169.73;;;56.55;;
27533;SDS011;14973;51.460;7.008;2022-12-10T02:49:06;171.23;;;56.78;;
27533;SDS011;14973;51.460;7.008;2022-12-10T02:51:33;164.18;;;55.47;;
27533;SDS011;14973;51.460;7.008;2022-12-10T02:54:03;170.00;;;59.40;;
27533;SDS011;14973;51.460;7.008;2022-12-10T02:56:33;171.77;;;56.00;;
27533;SDS011;14973;51.460;7.008;2022-12-10T02:59:14;173.27;;;57.17;;
27533;SDS011;14973;51.460;7.008;2022-12-10T03:01:59;173.45;;;55.05;;
27533;SDS011;14973;51.460;7.008;2022-12-10T03:07:18;174.25;;;57.25;;
27533;SDS011;14973;51.460;7.008;2022-12-10T03:09:55;171.52;;;55.95;;
27533;SDS011;14973;51.460;7.008;2022-12-10T03:12:28;178.85;;;56.03;;
27533;SDS011;14973;51.460;7.008;2022-12-10T03:14:58;172.13;;;57.00;;
27533;SDS011;14973;51.460;7.008;2022-12-10T03:17:26;169.50;;;56.15;;
27533;SDS011;14973;51.460;7.008;2022-12-10T03:19:54;172.88;;;56.67;;
27533;SDS011;14973;51.460;7.008;2022-12-10T03:22:22;186.30;;;58.63;;
27533;SDS011;14973;51.460;7.008;2022-12-10T03:24:48;172.20;;;57.00;;
27533;SDS011;14973;51.460;7.008;2022-12-10T03:27:14;177.15;;;57.58;;
27533;SDS011;14973;51.460;7.008;2022-12-10T03:29:45;177.68;;;59.65;;
27533;SDS011;14973;51.460;7.008;2022-12-10T03:32:13;164.35;;;54.17;;
27533;SDS011;14973;51.460;7.008;2022-12-10T03:34:41;157.48;;;55.47;;
27533;SDS011;14973;51.460;7.008;2022-12-10T03:37:08;164.32;;;56.08;;
27533;SDS011;14973;51.460;7.008;2022-12-10T03:39:35;158.20;;;54.72;;
27533;SDS011;14973;51.460;7.008;2022-12-10T03:42:01;154.75;;;53.20;;
27533;SDS011;14973;51.460;7.008;2022-12-10T03:44:30;150.93;;;53.08;;
27533;SDS011;14973;51.460;7.008;2022-12-10T03:46:58;152.55;;;51.58;;
27533;SDS011;14973;51.460;7.008;2022-12-10T03:49:24;148.50;;;53.22;;
27533;SDS011;14973;51.460;7.008;2022-12-10T03:51:49;151.70;;;54.15;;
27533;SDS011;14973;51.460;7.008;2022-12-10T03:54:15;146.43;;;52.67;;
27533;SDS011;14973;51.460;7.008;2022-12-10T03:56:41;151.50;;;51.53;;
27533;SDS011;14973;51.460;7.008;2022-12-10T03:59:06;141.80;;;51.38;;
27533;SDS011;14973;51.460;7.008;2022-12-10T04:01:32;146.05;;;49.75;;
27533;SDS011;14973;51.460;7.008;2022-12-10T04:03:57;145.40;;;51.50;;
27533;SDS011;14973;51.460;7.008;2022-12-10T04:06:23;140.60;;;52.03;;
27533;SDS011;14973;51.460;7.008;2022-12-10T04:08:49;150.95;;;52.63;;
27533;SDS011;14973;51.460;7.008;2022-12-10T04:11:16;143.20;;;50.40;;
27533;SDS011;14973;51.460;7.008;2022-12-10T04:13:42;144.88;;;49.90;;
27533;SDS011;14973;51.460;7.008;2022-12-10T04:16:27;153.55;;;53.75;;
27533;SDS011;14973;51.460;7.008;2022-12-10T04:21:20;152.60;;;54.35;;
27533;SDS011;14973;51.460;7.008;2022-12-10T04:24:06;142.23;;;51.13;;
27533;SDS011;14973;51.460;7.008;2022-12-10T04:26:55;149.95;;;52.60;;
27533;SDS011;14973;51.460;7.008;2022-12-10T04:29:22;151.13;;;51.25;;
27533;SDS011;14973;51.460;7.008;2022-12-10T04:31:50;146.35;;;51.92;;
27533;SDS011;14973;51.460;7.008;2022-12-10T04:34:16;145.40;;;50.30;;
27533;SDS011;14973;51.460;7.008;2022-12-10T04:36:42;131.50;;;47.85;;
27533;SDS011;14973;51.460;7.008;2022-12-10T04:39:07;130.35;;;47.20;;
27533;SDS011;14973;51.460;7.008;2022-12-10T04:41:33;126.68;;;46.72;;
27533;SDS011;14973;51.460;7.008;2022-12-10T04:43:59;133.75;;;48.95;;
27533;SDS011;14973;51.460;7.008;2022-12-10T04:46:24;136.65;;;49.20;;
27533;SDS011;14973;51.460;7.008;2022-12-10T04:48:50;130.82;;;48.63;;
27533;SDS011;14973;51.460;7.008;2022-12-10T04:51:15;123.13;;;46.53;;
27533;SDS011;14973;51.460;7.008;2022-12-10T04:53:41;128.38;;;46.28;;
27533;SDS011;14973;51.460;7.008;2022-12-10T04:56:06;131.77;;;45.78;;
27533;SDS011;14973;51.460;7.008;2022-12-10T04:58:32;127.30;;;45.10;;
27533;SDS011;14973;51.460;7.008;2022-12-10T05:01:05;128.77;;;45.15;;
27533;SDS011;14973;51.460;7.008;2022-12-10T05:03:32;130.95;;;46.08;;
27533;SDS011;14973;51.460;7.008;2022-12-10T05:06:02;137.48;;;48.38;;
27533;SDS011;14973;51.460;7.008;2022-12-10T05:08:28;133.68;;;44.80;;
27533;SDS011;14973;51.460;7.008;2022-12-10T05:10:55;144.02;;;46.65;;
27533;SDS011;14973;51.460;7.008;2022-12-10T05:13:25;142.00;;;48.22;;
27533;SDS011;14973;51.460;7.008;2022-12-10T05:15:50;141.48;;;49.20;;
27533;SDS011;14973;51.460;7.008;2022-12-10T05:18:16;119.65;;;42.45;;
27533;SDS011;14973;51.460;7.008;2022-12-10T05:20:41;129.65;;;44.17;;
27533;SDS011;14973;51.460;7.008;2022-12-10T05:23:07;125.18;;;42.20;;
27533;SDS011;14973;51.460;7.008;2022-12-10T05:25:57;133.50;;;47.33;;
27533;SDS011;14973;51.460;7.008;2022-12-10T05:30:52;126.47;;;42.58;;
27533;SDS011;14973;51.460;7.008;2022-12-10T05:33:18;123.25;;;42.80;;
27533;SDS011;14973;51.460;7.008;2022-12-10T05:35:43;128.52;;;45.15;;
27533;SDS011;14973;51.460;7.008;2022-12-10T05:38:16;131.30;;;45.15;;
27533;SDS011;14973;51.460;7.008;2022-12-10T05:40:41;138.80;;;45.10;;
27533;SDS011;14973;51.460;7.008;2022-12-10T05:43:07;125.32;;;42.80;;
27533;SDS011;14973;51.460;7.008;2022-12-10T05:45:32;137.77;;;46.05;;
27533;SDS011;14973;51.460;7.008;2022-12-10T05:47:58;134.10;;;46.45;;
27533;SDS011;14973;51.460;7.008;2022-12-10T05:50:23;136.82;;;47.50;;
27533;SDS011;14973;51.460;7.008;2022-12-10T05:52:50;128.15;;;44.20;;
27533;SDS011;14973;51.460;7.008;2022-12-10T05:55:16;141.00;;;47.47;;
27533;SDS011;14973;51.460;7.008;2022-12-10T05:57:41;133.02;;;45.22;;
27533;SDS011;14973;51.460;7.008;2022-12-10T06:00:07;126.63;;;45.22;;
27533;SDS011;14973;51.460;7.008;2022-12-10T06:02:33;136.63;;;46.75;;
27533;SDS011;14973;51.460;7.008;2022-12-10T06:04:59;135.00;;;47.05;;
27533;SDS011;14973;51.460;7.008;2022-12-10T06:07:25;148.55;;;47.28;;
27533;SDS011;14973;51.460;7.008;2022-12-10T06:09:50;149.50;;;49.03;;
27533;SDS011;14973;51.460;7.008;2022-12-10T06:12:16;146.43;;;49.22;;
27533;SDS011;14973;51.460;7.008;2022-12-10T06:14:42;139.80;;;47.85;;
27533;SDS011;14973;51.460;7.008;2022-12-10T06:17:08;161.60;;;49.78;;
27533;SDS011;14973;51.460;7.008;2022-12-10T06:19:33;168.05;;;53.30;;
27533;SDS011;14973;51.460;7.008;2022-12-10T06:21:59;161.40;;;50.75;;
27533;SDS011;14973;51.460;7.008;2022-12-10T06:24:25;167.68;;;50.65;;
27533;SDS011;14973;51.460;7.008;2022-12-10T06:26:50;158.18;;;49.95;;
27533;SDS011;14973;51.460;7.008;2022-12-10T06:29:16;153.90;;;49.70;;
27533;SDS011;14973;51.460;7.008;2022-12-10T06:31:42;161.25;;;48.70;;
27533;SDS011;14973;51.460;7.008;2022-12-10T06:34:08;151.57;;;49.90;;
27533;SDS011;14973;51.460;7.008;2022-12-10T06:36:34;162.07;;;50.13;;
27533;SDS011;14973;51.460;7.008;2022-12-10T06:38:59;163.40;;;50.30;;
27533;SDS011;14973;51.460;7.008;2022-12-10T06:41:25;178.15;;;52.72;;
27533;SDS011;14973;51.460;7.008;2022-12-10T06:43:52;193.55;;;52.33;;
27533;SDS011;14973;51.460;7.008;2022-12-10T06:46:18;215.68;;;54.67;;
27533;SDS011;14973;51.460;7.008;2022-12-10T06:48:45;229.40;;;57.53;;
27533;SDS011;14973;51.460;7.008;2022-12-10T06:51:11;209.35;;;54.53;;
27533;SDS011;14973;51.460;7.008;2022-12-10T06:53:39;212.38;;;57.78;;
27533;SDS011;14973;51.460;7.008;2022-12-10T06:56:06;229.93;;;57.92;;
27533;SDS011;14973;51.460;7.008;2022-12-10T06:58:33;227.65;;;57.42;;
27533;SDS011;14973;51.460;7.008;2022-12-10T07:01:06;223.35;;;58.97;;
27533;SDS011;14973;51.460;7.008;2022-12-10T07:03:34;224.48;;;58.90;;
27533;SDS011;14973;51.460;7.008;2022-12-10T07:06:00;235.95;;;57.50;;
27533;SDS011;14973;51.460;7.008;2022-12-10T07:08:27;230.07;;;57.40;;
27533;SDS011;14973;51.460;7.008;2022-12-10T07:10:53;225.40;;;58.65;;
27533;SDS011;14973;51.460;7.008;2022-12-10T07:13:18;218.50;;;58.63;;
27533;SDS011;14973;51.460;7.008;2022-12-10T07:15:44;218.57;;;57.90;;
27533;SDS011;14973;51.460;7.008;2022-12-10T07:18:09;211.75;;;55.85;;
27533;SDS011;14973;51.460;7.008;2022-12-10T07:20:35;210.15;;;59.83;;
27533;SDS011;14973;51.460;7.008;2022-12-10T07:23:01;224.38;;;58.75;;
27533;SDS011;14973;51.460;7.008;2022-12-10T07:25:26;210.57;;;59.75;;
27533;SDS011;14973;51.460;7.008;2022-12-10T07:27:52;219.02;;;59.25;;
27533;SDS011;14973;51.460;7.008;2022-12-10T07:30:18;214.70;;;59.28;;
27533;SDS011;14973;51.460;7.008;2022-12-10T07:32:43;209.95;;;58.42;;
27533;SDS011;14973;51.460;7.008;2022-12-10T07:35:09;221.80;;;58.58;;
27533;SDS011;14973;51.460;7.008;2022-12-10T07:37:34;200.23;;;56.63;;
27533;SDS011;14973;51.460;7.008;2022-12-10T07:40:00;216.82;;;54.38;;
27533;SDS011;14973;51.460;7.008;2022-12-10T07:42:26;197.10;;;56.67;;
27533;SDS011;14973;51.460;7.008;2022-12-10T07:44:51;207.60;;;58.67;;
27533;SDS011;14973;51.460;7.008;2022-12-10T07:47:17;208.88;;;57.40;;
27533;SDS011;14973;51.460;7.008;2022-12-10T07:49:42;193.88;;;55.92;;
27533;SDS011;14973;51.460;7.008;2022-12-10T07:52:08;209.13;;;55.30;;
27533;SDS011;14973;51.460;7.008;2022-12-10T07:54:34;199.55;;;58.25;;
27533;SDS011;14973;51.460;7.008;2022-12-10T07:57:00;201.40;;;57.75;;
27533;SDS011;14973;51.460;7.008;2022-12-10T07:59:25;211.35;;;58.22;;
27533;SDS011;14973;51.460;7.008;2022-12-10T08:01:51;212.35;;;59.70;;
27533;SDS011;14973;51.460;7.008;2022-12-10T08:04:17;183.75;;;55.38;;
27533;SDS011;14973;51.460;7.008;2022-12-10T08:06:42;197.70;;;56.15;;
27533;SDS011;14973;51.460;7.008;2022-12-10T08:09:08;201.45;;;58.13;;
27533;SDS011;14973;51.460;7.008;2022-12-10T08:11:34;190.52;;;56.67;;
27533;SDS011;14973;51.460;7.008;2022-12-10T08:14:00;193.02;;;56.40;;
27533;SDS011;14973;51.460;7.008;2022-12-10T08:16:27;189.98;;;56.00;;
27533;SDS011;14973;51.460;7.008;2022-12-10T08:18:54;198.43;;;57.97;;
27533;SDS011;14973;51.460;7.008;2022-12-10T08:21:21;190.98;;;57.00;;
27533;SDS011;14973;51.460;7.008;2022-12-10T08:23:49;178.95;;;55.65;;
27533;SDS011;14973;51.460;7.008;2022-12-10T08:26:16;167.40;;;51.70;;
27533;SDS011;14973;51.460;7.008;2022-12-10T08:28:43;178.93;;;55.25;;
27533;SDS011;14973;51.460;7.008;2022-12-10T08:31:10;174.30;;;54.35;;
27533;SDS011;14973;51.460;7.008;2022-12-10T08:33:37;163.88;;;53.60;;
27533;SDS011;14973;51.460;7.008;2022-12-10T08:36:04;170.45;;;53.00;;
27533;SDS011;14973;51.460;7.008;2022-12-10T08:38:31;166.80;;;53.17;;
27533;SDS011;14973;51.460;7.008;2022-12-10T08:40:58;177.50;;;57.13;;
27533;SDS011;14973;51.460;7.008;2022-12-10T08:43:24;180.45;;;57.25;;
27533;SDS011;14973;51.460;7.008;2022-12-10T08:45:49;175.30;;;54.08;;
27533;SDS011;14973;51.460;7.008;2022-12-10T08:48:15;182.90;;;56.13;;
27533;SDS011;14973;51.460;7.008;2022-12-10T08:50:41;176.10;;;55.78;;
27533;SDS011;14973;51.460;7.008;2022-12-10T08:53:06;183.80;;;57.33;;
27533;SDS011;14973;51.460;7.008;2022-12-10T08:55:32;174.52;;;56.28;;
27533;SDS011;14973;51.460;7.008;2022-12-10T08:57:58;169.98;;;54.92;;
27533;SDS011;14973;51.460;7.008;2022-12-10T09:00:25;188.90;;;57.67;;
27533;SDS011;14973;51.460;7.008;2022-12-10T09:02:51;177.52;;;55.72;;
27533;SDS011;14973;51.460;7.008;2022-12-10T09:05:17;169.05;;;57.28;;
27533;SDS011;14973;51.460;7.008;2022-12-10T09:07:42;179.82;;;56.45;;
27533;SDS011;14973;51.460;7.008;2022-12-10T09:10:11;153.20;;;51.30;;
27533;SDS011;14973;51.460;7.008;2022-12-10T09:12:37;165.82;;;53.22;;
27533;SDS011;14973;51.460;7.008;2022-12-10T09:15:03;171.05;;;52.63;;
27533;SDS011;14973;51.460;7.008;2022-12-10T09:17:30;181.30;;;55.08;;
27533;SDS011;14973;51.460;7.008;2022-12-10T09:19:56;178.18;;;56.92;;
27533;SDS011;14973;51.460;7.008;2022-12-10T09:22:22;177.27;;;57.20;;
27533;SDS011;14973;51.460;7.008;2022-12-10T09:24:48;174.57;;;53.55;;
27533;SDS011;14973;51.460;7.008;2022-12-10T09:27:13;179.82;;;56.03;;
27533;SDS011;14973;51.460;7.008;2022-12-10T09:29:39;178.75;;;56.28;;
27533;SDS011;14973;51.460;7.008;2022-12-10T09:32:04;168.38;;;55.67;;
27533;SDS011;14973;51.460;7.008;2022-12-10T09:34:30;166.80;;;55.38;;
27533;SDS011;14973;51.460;7.008;2022-12-10T09:36:55;171.80;;;54.10;;
27533;SDS011;14973;51.460;7.008;2022-12-10T09:39:21;173.65;;;55.95;;
27533;SDS011;14973;51.460;7.008;2022-12-10T09:44:25;163.32;;;52.67;;
27533;SDS011;14973;51.460;7.008;2022-12-10T09:47:01;166.73;;;52.53;;
27533;SDS011;14973;51.460;7.008;2022-12-10T09:49:37;159.35;;;51.28;;
27533;SDS011;14973;51.460;7.008;2022-12-10T09:52:06;152.30;;;50.53;;
27533;SDS011;14973;51.460;7.008;2022-12-10T09:57:21;152.68;;;51.17;;
27533;SDS011;14973;51.460;7.008;2022-12-10T09:59:49;156.52;;;52.90;;
27533;SDS011;14973;51.460;7.008;2022-12-10T10:07:31;155.43;;;50.67;;
27533;SDS011;14973;51.460;7.008;2022-12-10T10:10:07;163.77;;;52.65;;
27533;SDS011;14973;51.460;7.008;2022-12-10T10:12:52;162.77;;;52.97;;
27533;SDS011;14973;51.460;7.008;2022-12-10T10:15:26;151.52;;;50.47;;
27533;SDS011;14973;51.460;7.008;2022-12-10T10:17:55;149.00;;;49.60;;
27533;SDS011;14973;51.460;7.008;2022-12-10T10:20:24;156.13;;;50.60;;
27533;SDS011;14973;51.460;7.008;2022-12-10T10:22:50;155.57;;;48.88;;
27533;SDS011;14973;51.460;7.008;2022-12-10T10:25:17;150.43;;;50.25;;
27533;SDS011;14973;51.460;7.008;2022-12-10T10:27:43;158.90;;;52.30;;
27533;SDS011;14973;51.460;7.008;2022-12-10T10:30:13;144.52;;;48.67;;
27533;SDS011;14973;51.460;7.008;2022-12-10T10:35:09;147.10;;;47.28;;
27533;SDS011;14973;51.460;7.008;2022-12-10T10:37:47;136.48;;;44.22;;
27533;SDS011;14973;51.460;7.008;2022-12-10T10:40:23;136.27;;;43.78;;
27533;SDS011;14973;51.460;7.008;2022-12-10T10:42:53;135.85;;;42.60;;
27533;SDS011;14973;51.460;7.008;2022-12-10T10:50:40;125.88;;;41.80;;
27533;SDS011;14973;51.460;7.008;2022-12-10T10:56:08;121.88;;;41.65;;
27533;SDS011;14973;51.460;7.008;2022-12-10T11:01:59;116.10;;;39.67;;
27533;SDS011;14973;51.460;7.008;2022-12-10T11:07:01;120.50;;;38.17;;
27533;SDS011;14973;51.460;7.008;2022-12-10T11:09:29;121.35;;;38.70;;
27533;SDS011;14973;51.460;7.008;2022-12-10T11:11:58;125.25;;;38.42;;
27533;SDS011;14973;51.460;7.008;2022-12-10T11:14:46;130.18;;;39.53;;
27533;SDS011;14973;51.460;7.008;2022-12-10T11:22:51;124.43;;;38.72;;
27533;SDS011;14973;51.460;7.008;2022-12-10T11:28:40;121.35;;;38.65;;
27533;SDS011;14973;51.460;7.008;2022-12-10T11:34:04;113.22;;;39.88;;
27533;SDS011;14973;51.460;7.008;2022-12-10T11:45:24;124.93;;;39.30;;
27533;SDS011;14973;51.460;7.008;2022-12-10T11:50:40;139.93;;;43.13;;
27533;SDS011;14973;51.460;7.008;2022-12-10T11:58:58;117.40;;;41.20;;
27533;SDS011;14973;51.460;7.008;2022-12-10T12:05:06;115.88;;;39.28;;
27533;SDS011;14973;51.460;7.008;2022-12-10T12:10:48;93.30;;;33.20;;
27533;SDS011;14973;51.460;7.008;2022-12-10T12:13:18;102.40;;;34.40;;
27533;SDS011;14973;51.460;7.008;2022-12-10T12:16:11;94.22;;;33.63;;
27533;SDS011;14973;51.460;7.008;2022-12-10T12:21:16;87.72;;;33.03;;
27533;SDS011;14973;51.460;7.008;2022-12-10T12:23:45;94.20;;;33.05;;
27533;SDS011;14973;51.460;7.008;2022-12-10T12:26:24;92.80;;;33.47;;
27533;SDS011;14973;51.460;7.008;2022-12-10T12:32:25;91.82;;;30.95;;
27533;SDS011;14973;51.460;7.008;2022-12-10T12:37:40;103.05;;;35.45;;
27533;SDS011;14973;51.460;7.008;2022-12-10T12:40:27;103.80;;;36.53;;
27533;SDS011;14973;51.460;7.008;2022-12-10T12:42:58;105.32;;;37.42;;
27533;SDS011;14973;51.460;7.008;2022-12-10T12:48:11;118.95;;;38.30;;
27533;SDS011;14973;51.460;7.008;2022-12-10T12:50:44;114.72;;;39.88;;
27533;SDS011;14973;51.460;7.008;2022-12-10T12:53:20;117.22;;;40.47;;
27533;SDS011;14973;51.460;7.008;2022-12-10T12:56:05;121.95;;;40.22;;
27533;SDS011;14973;51.460;7.008;2022-12-10T13:01:31;112.95;;;38.50;;
27533;SDS011;14973;51.460;7.008;2022-12-10T13:04:04;117.85;;;39.88;;
27533;SDS011;14973;51.460;7.008;2022-12-10T13:06:32;103.35;;;37.88;;
27533;SDS011;14973;51.460;7.008;2022-12-10T13:11:41;118.30;;;41.42;;
27533;SDS011;14973;51.460;7.008;2022-12-10T13:19:22;120.22;;;40.72;;
27533;SDS011;14973;51.460;7.008;2022-12-10T13:42:39;117.63;;;42.03;;
27533;SDS011;14973;51.460;7.008;2022-12-10T13:45:29;119.07;;;41.63;;
27533;SDS011;14973;51.460;7.008;2022-12-10T13:48:17;107.50;;;39.15;;
27533;SDS011;14973;51.460;7.008;2022-12-10T13:50:59;103.88;;;36.92;;
27533;SDS011;14973;51.460;7.008;2022-12-10T13:56:27;109.63;;;38.53;;
27533;SDS011;14973;51.460;7.008;2022-12-10T13:59:12;111.38;;;39.42;;
27533;SDS011;14973;51.460;7.008;2022-12-10T14:02:18;103.70;;;37.33;;
27533;SDS011;14973;51.460;7.008;2022-12-10T14:07:52;123.93;;;43.50;;
27533;SDS011;14973;51.460;7.008;2022-12-10T14:10:22;127.57;;;43.50;;
27533;SDS011;14973;51.460;7.008;2022-12-10T14:12:53;125.47;;;45.17;;
27533;SDS011;14973;51.460;7.008;2022-12-10T14:15:20;122.88;;;44.95;;
27533;SDS011;14973;51.460;7.008;2022-12-10T14:17:54;137.27;;;45.90;;
27533;SDS011;14973;51.460;7.008;2022-12-10T14:20:28;130.27;;;44.30;;
27533;SDS011;14973;51.460;7.008;2022-12-10T14:22:56;122.75;;;43.38;;
27533;SDS011;14973;51.460;7.008;2022-12-10T14:25:50;120.45;;;42.00;;
27533;SDS011;14973;51.460;7.008;2022-12-10T14:28:17;122.93;;;43.25;;
27533;SDS011;14973;51.460;7.008;2022-12-10T14:30:49;130.68;;;44.95;;
27533;SDS011;14973;51.460;7.008;2022-12-10T14:33:17;120.50;;;41.63;;
27533;SDS011;14973;51.460;7.008;2022-12-10T14:35:49;117.68;;;42.08;;
27533;SDS011;14973;51.460;7.008;2022-12-10T14:38:48;129.20;;;44.13;;
27533;SDS011;14973;51.460;7.008;2022-12-10T14:41:10;124.75;;;43.83;;
27533;SDS011;14973;51.460;7.008;2022-12-10T14:43:38;116.40;;;41.83;;
27533;SDS011;14973;51.460;7.008;2022-12-10T14:46:06;121.07;;;42.47;;
27533;SDS011;14973;51.460;7.008;2022-12-10T14:48:57;114.80;;;39.67;;
27533;SDS011;14973;51.460;7.008;2022-12-10T14:51:25;109.00;;;38.97;;
27533;SDS011;14973;51.460;7.008;2022-12-10T14:53:52;122.68;;;43.25;;
27533;SDS011;14973;51.460;7.008;2022-12-10T14:56:29;121.93;;;43.17;;
27533;SDS011;14973;51.460;7.008;2022-12-10T15:01:39;142.23;;;47.65;;
27533;SDS011;14973;51.460;7.008;2022-12-10T15:04:11;132.30;;;48.28;;
27533;SDS011;14973;51.460;7.008;2022-12-10T15:06:39;135.27;;;46.53;;
27533;SDS011;14973;51.460;7.008;2022-12-10T15:09:06;133.85;;;47.35;;
27533;SDS011;14973;51.460;7.008;2022-12-10T15:11:39;133.85;;;47.08;;
27533;SDS011;14973;51.460;7.008;2022-12-10T15:14:05;139.93;;;48.63;;
27533;SDS011;14973;51.460;7.008;2022-12-10T15:16:37;144.18;;;49.50;;
27533;SDS011;14973;51.460;7.008;2022-12-10T15:19:07;136.60;;;47.17;;
27533;SDS011;14973;51.460;7.008;2022-12-10T15:21:48;127.33;;;45.40;;
27533;SDS011;14973;51.460;7.008;2022-12-10T15:24:20;126.90;;;42.60;;
27533;SDS011;14973;51.460;7.008;2022-12-10T15:26:50;137.50;;;44.05;;
27533;SDS011;14973;51.460;7.008;2022-12-10T15:31:55;140.63;;;48.05;;
27533;SDS011;14973;51.460;7.008;2022-12-10T15:34:25;138.55;;;46.60;;
27533;SDS011;14973;51.460;7.008;2022-12-10T15:36:53;143.70;;;49.83;;
27533;SDS011;14973;51.460;7.008;2022-12-10T15:39:29;120.45;;;43.97;;
27533;SDS011;14973;51.460;7.008;2022-12-10T15:42:07;131.70;;;43.13;;
27533;SDS011;14973;51.460;7.008;2022-12-10T15:44:37;135.70;;;43.63;;
27533;SDS011;14973;51.460;7.008;2022-12-10T15:47:20;137.40;;;46.25;;
27533;SDS011;14973;51.460;7.008;2022-12-10T15:49:48;133.60;;;45.25;;
27533;SDS011;14973;51.460;7.008;2022-12-10T15:54:49;114.60;;;42.50;;
27533;SDS011;14973;51.460;7.008;2022-12-10T15:57:26;131.52;;;43.50;;
27533;SDS011;14973;51.460;7.008;2022-12-10T16:00:00;132.18;;;43.80;;
27533;SDS011;14973;51.460;7.008;2022-12-10T16:02:48;136.25;;;46.60;;
27533;SDS011;14973;51.460;7.008;2022-12-10T16:05:25;134.88;;;43.20;;
27533;SDS011;14973;51.460;7.008;2022-12-10T16:07:52;138.68;;;46.20;;
27533;SDS011;14973;51.460;7.008;2022-12-10T16:10:21;131.60;;;45.10;;
27533;SDS011;14973;51.460;7.008;2022-12-10T16:12:57;136.95;;;45.20;;
27533;SDS011;14973;51.460;7.008;2022-12-10T16:15:29;124.90;;;43.20;;
27533;SDS011;14973;51.460;7.008;2022-12-10T16:18:00;128.55;;;43.13;;
27533;SDS011;14973;51.460;7.008;2022-12-10T16:20:27;131.40;;;43.40;;
27533;SDS011;14973;51.460;7.008;2022-12-10T16:22:57;132.10;;;45.17;;
27533;SDS011;14973;51.460;7.008;2022-12-10T16:25:24;142.27;;;46.60;;
27533;SDS011;14973;51.460;7.008;2022-12-10T16:27:52;142.55;;;46.75;;
27533;SDS011;14973;51.460;7.008;2022-12-10T16:32:45;128.75;;;45.30;;
27533;SDS011;14973;51.460;7.008;2022-12-10T16:35:11;136.30;;;45.58;;
27533;SDS011;14973;51.460;7.008;2022-12-10T16:37:39;142.15;;;46.92;;
27533;SDS011;14973;51.460;7.008;2022-12-10T16:40:10;144.82;;;47.47;;
27533;SDS011;14973;51.460;7.008;2022-12-10T16:42:40;133.65;;;45.42;;
27533;SDS011;14973;51.460;7.008;2022-12-10T16:45:25;138.38;;;44.97;;
27533;SDS011;14973;51.460;7.008;2022-12-10T16:47:54;129.00;;;43.75;;
27533;SDS011;14973;51.460;7.008;2022-12-10T16:50:19;122.45;;;43.15;;
27533;SDS011;14973;51.460;7.008;2022-12-10T16:52:46;132.38;;;41.50;;
27533;SDS011;14973;51.460;7.008;2022-12-10T16:55:16;120.85;;;42.55;;
27533;SDS011;14973;51.460;7.008;2022-12-10T16:57:45;136.15;;;45.13;;